Time;durP1;ratioP1;P1;durP2;ratioP2;P2;SDS_P1;SDS_P2;PMS_P1;PMS_P2;Temp;Humidity;BMP_temperature;BMP_pressure;BME280_temperature;BME280_humidity;BME280_pressure;Samples;Min_cycle;Max_cycle;Signal;HPM_P1;HPM_P2
2021/07/04 00:02:03;;;;;;;11.40;10.30;;;22.30;89.90;;;;;;5074435;28;20028;-87
2021/07/04 00:04:29;;;;;;;12.35;10.32;;;22.30;89.90;;;;;;5074381;28;20024;-88
2021/07/04 00:06:54;;;;;;;10.50;9.45;;;22.20;89.80;;;;;;5056600;28;20031;-87
2021/07/04 00:09:20;;;;;;;11.23;9.68;;;22.20;89.80;;;;;;5074465;28;20052;-87
2021/07/04 00:11:47;;;;;;;11.40;9.90;;;22.20;89.80;;;;;;5074479;28;20035;-86
2021/07/04 00:14:13;;;;;;;11.20;10.10;;;22.20;89.80;;;;;;5074347;28;20025;-85
2021/07/04 00:16:39;;;;;;;13.05;9.48;;;22.20;89.90;;;;;;5056355;28;20375;-85
2021/07/04 00:19:05;;;;;;;11.52;9.75;;;22.10;89.90;;;;;;5074339;28;20052;-85
2021/07/04 00:21:31;;;;;;;11.45;9.77;;;22.10;90.00;;;;;;5074333;28;20056;-86
2021/07/04 00:23:56;;;;;;;12.05;9.75;;;22.10;90.00;;;;;;5074519;28;20514;-85
2021/07/04 00:26:22;;;;;;;13.43;10.93;;;22.10;90.00;;;;;;5074401;28;20375;-85
2021/07/04 00:28:48;;;;;;;12.48;9.70;;;22.00;90.00;;;;;;5074730;28;20471;-86
2021/07/04 00:31:14;;;;;;;13.35;10.13;;;22.00;90.00;;;;;;5056331;28;20027;-86
2021/07/04 00:33:40;;;;;;;13.85;9.77;;;22.00;90.10;;;;;;5074126;28;20024;-86
2021/07/04 00:36:06;;;;;;;15.75;11.10;;;22.00;90.10;;;;;;5074482;28;20016;-86
2021/07/04 00:38:32;;;;;;;12.15;9.93;;;22.00;90.10;;;;;;5074017;28;20099;-85
2021/07/04 00:40:58;;;;;;;13.90;9.63;;;21.90;90.10;;;;;;5074128;28;20024;-86
2021/07/04 00:43:23;;;;;;;13.85;9.70;;;21.90;90.10;;;;;;5074945;28;20035;-84
2021/07/04 00:45:49;;;;;;;13.48;9.38;;;21.90;90.20;;;;;;5073920;28;20059;-85
2021/07/04 00:48:15;;;;;;;14.30;9.50;;;21.90;90.30;;;;;;5074151;28;20024;-85
2021/07/04 00:50:41;;;;;;;11.13;9.93;;;21.90;90.30;;;;;;5074208;28;20027;-85
2021/07/04 00:53:07;;;;;;;13.43;9.60;;;21.90;90.30;;;;;;5074142;28;20031;-85
2021/07/04 00:55:34;;;;;;;12.85;9.82;;;21.90;90.40;;;;;;5055872;28;20051;-86
2021/07/04 00:58:00;;;;;;;15.55;9.95;;;21.90;90.40;;;;;;5056075;28;20050;-85
2021/07/04 01:00:29;;;;;;;14.48;10.05;;;21.90;90.40;;;;;;5074035;28;20108;-86
2021/07/04 01:02:56;;;;;;;14.90;9.68;;;21.90;90.40;;;;;;5074753;28;20021;-86
2021/07/04 01:05:28;;;;;;;13.05;9.25;;;21.80;90.40;;;;;;5074195;28;20478;-85
2021/07/04 01:07:53;;;;;;;;;;;21.80;90.50;;;;;;5074503;28;20012;-85
2021/07/04 01:10:22;;;;;;;14.70;10.20;;;21.80;90.40;;;;;;5073666;28;19915;-85
2021/07/04 01:12:50;;;;;;;15.38;9.57;;;21.80;90.40;;;;;;5076336;28;20028;-85
2021/07/04 01:15:17;;;;;;;10.55;9.55;;;21.80;90.40;;;;;;5077851;28;20414;-86
2021/07/04 01:17:43;;;;;;;15.30;9.57;;;21.80;90.40;;;;;;5077669;28;20025;-85
2021/07/04 01:20:11;;;;;;;14.30;9.45;;;21.80;90.40;;;;;;5076533;28;20496;-85
2021/07/04 01:22:39;;;;;;;9.50;8.60;;;21.80;90.40;;;;;;5077384;28;20040;-85
2021/07/04 01:25:09;;;;;;;11.57;8.80;;;21.80;90.40;;;;;;5077836;28;20021;-85
2021/07/04 01:27:35;;;;;;;11.55;9.02;;;21.80;90.40;;;;;;5078287;28;20025;-85
2021/07/04 01:30:01;;;;;;;9.90;8.90;;;21.80;90.40;;;;;;5078100;28;20052;-85
2021/07/04 01:32:27;;;;;;;10.45;9.43;;;21.70;90.40;;;;;;5077941;28;20032;-85
2021/07/04 01:34:53;;;;;;;9.75;8.73;;;21.70;90.40;;;;;;5059676;28;20483;-85
2021/07/04 01:37:19;;;;;;;11.00;9.32;;;21.80;90.40;;;;;;5077662;28;20371;-85
2021/07/04 01:39:45;;;;;;;10.68;9.07;;;21.70;90.40;;;;;;5059623;28;20028;-86
2021/07/04 01:42:11;;;;;;;10.18;8.75;;;21.70;90.40;;;;;;5059157;28;20036;-86
2021/07/04 01:44:37;;;;;;;12.27;9.55;;;21.70;90.40;;;;;;5077777;28;20028;-86
2021/07/04 01:47:02;;;;;;;12.30;9.35;;;21.70;90.40;;;;;;5076972;28;20027;-86
2021/07/04 01:49:28;;;;;;;12.80;9.70;;;21.70;90.40;;;;;;5058965;28;20024;-86
2021/07/04 01:51:54;;;;;;;13.27;9.65;;;21.70;90.40;;;;;;5076916;28;20073;-86
2021/07/04 01:54:20;;;;;;;13.95;9.65;;;21.70;90.50;;;;;;5077359;28;20527;-86
2021/07/04 01:56:46;;;;;;;11.02;8.52;;;21.70;90.40;;;;;;5076969;28;20020;-85
2021/07/04 01:59:12;;;;;;;12.85;8.75;;;21.70;90.50;;;;;;5077445;28;20055;-86
2021/07/04 02:01:37;;;;;;;11.32;8.57;;;21.70;90.50;;;;;;5077351;28;20025;-85
2021/07/04 02:04:03;;;;;;;14.05;9.70;;;21.70;90.40;;;;;;5076796;28;20070;-86
2021/07/04 02:06:31;;;;;;;12.27;9.25;;;21.70;90.40;;;;;;5076800;28;20495;-86
2021/07/04 02:08:56;;;;;;;12.88;10.07;;;21.70;90.40;;;;;;5076393;28;20031;-86
2021/07/04 02:11:22;;;;;;;11.80;9.50;;;21.80;90.40;;;;;;5077412;28;20379;-85
2021/07/04 02:13:49;;;;;;;11.52;9.10;;;21.80;90.30;;;;;;5076668;28;20059;-87
2021/07/04 02:16:15;;;;;;;19.08;9.38;;;21.80;90.30;;;;;;5077076;28;20522;-85
2021/07/04 02:18:44;;;;;;;13.10;9.40;;;21.80;90.30;;;;;;5076865;28;20066;-86
2021/07/04 02:21:09;;;;;;;14.15;9.55;;;21.90;90.30;;;;;;5076844;28;20416;-87
2021/07/04 02:23:36;;;;;;;13.30;9.57;;;22.00;90.40;;;;;;5075777;28;20020;-86
2021/07/04 02:26:02;;;;;;;11.30;10.10;;;22.20;90.40;;;;;;5076560;28;20040;-86
2021/07/04 02:28:29;;;;;;;10.38;9.27;;;22.50;90.10;;;;;;5076545;28;20033;-86
2021/07/04 02:30:57;;;;;;;9.95;8.95;;;22.80;89.20;;;;;;5077113;28;20375;-85
2021/07/04 02:33:24;;;;;;;12.38;8.80;;;23.10;87.70;;;;;;5078487;28;20017;-85
2021/07/04 02:35:52;;;;;;;9.98;8.95;;;23.20;86.20;;;;;;5083881;28;20028;-84
2021/07/04 02:38:18;;;;;;;11.10;9.05;;;23.20;85.20;;;;;;5077247;28;20463;-85
2021/07/04 02:40:44;;;;;;;16.08;9.52;;;23.20;84.50;;;;;;5076504;28;20051;-85
2021/07/04 02:43:12;;;;;;;12.35;9.88;;;23.20;84.30;;;;;;5076297;28;20024;-86
2021/07/04 02:45:38;;;;;;;13.90;9.57;;;23.10;84.40;;;;;;5075950;28;20023;-86
2021/07/04 02:48:06;;;;;;;10.25;9.07;;;23.00;84.60;;;;;;5057958;28;20020;-86
2021/07/04 02:50:32;;;;;;;12.85;9.88;;;23.00;85.10;;;;;;5075734;28;20016;-86
2021/07/04 02:52:57;;;;;;;11.68;9.20;;;23.00;85.40;;;;;;5076179;28;20020;-86
2021/07/04 02:55:24;;;;;;;12.77;8.93;;;23.10;85.60;;;;;;5075587;28;20037;-86
2021/07/04 02:57:51;;;;;;;11.77;9.70;;;23.30;85.50;;;;;;5075833;28;20467;-86
2021/07/04 03:00:20;;;;;;;13.40;10.00;;;23.50;84.60;;;;;;5075982;28;20062;-86
2021/07/04 03:02:46;;;;;;;12.60;9.70;;;23.50;83.80;;;;;;5075552;28;20035;-85
2021/07/04 03:05:13;;;;;;;12.95;10.15;;;23.70;83.80;;;;;;5075452;28;20105;-86
2021/07/04 03:07:39;;;;;;;15.82;10.93;;;23.80;82.80;;;;;;5075361;28;20472;-86
2021/07/04 03:10:07;;;;;;;11.48;9.25;;;23.80;82.30;;;;;;5075529;28;20039;-84
2021/07/04 03:12:33;;;;;;;11.88;9.60;;;23.90;82.20;;;;;;5057105;28;20061;-83
2021/07/04 03:14:59;;;;;;;15.73;10.68;;;23.90;82.20;;;;;;5075105;28;20032;-84
2021/07/04 03:17:24;;;;;;;11.68;10.35;;;23.90;82.60;;;;;;5057155;28;20021;-84
2021/07/04 03:19:50;;;;;;;12.88;9.77;;;23.90;81.90;;;;;;5057035;28;20066;-83
2021/07/04 03:22:16;;;;;;;13.73;9.73;;;23.90;82.00;;;;;;5075005;28;20020;-84
2021/07/04 03:24:42;;;;;;;13.50;9.80;;;23.90;82.00;;;;;;5074994;28;20024;-84
2021/07/04 03:27:09;;;;;;;13.75;10.10;;;23.90;81.90;;;;;;5075420;28;20075;-84
2021/07/04 03:29:35;;;;;;;14.40;9.52;;;24.00;82.00;;;;;;5075307;28;20162;-84
2021/07/04 03:32:01;;;;;;;11.45;9.13;;;24.10;81.80;;;;;;5074808;28;20086;-85
2021/07/04 03:34:27;;;;;;;13.68;9.98;;;24.10;81.50;;;;;;5057063;28;20025;-85
2021/07/04 03:36:53;;;;;;;14.18;11.02;;;24.10;81.10;;;;;;5075021;28;20028;-84
2021/07/04 03:39:18;;;;;;;11.18;9.93;;;24.10;81.00;;;;;;5074811;28;20523;-84
2021/07/04 03:41:44;;;;;;;14.02;10.50;;;24.10;81.00;;;;;;5074910;28;20021;-84
2021/07/04 03:44:10;;;;;;;14.27;10.60;;;24.00;81.10;;;;;;5057356;28;20078;-83
2021/07/04 03:46:36;;;;;;;11.38;10.20;;;24.00;81.40;;;;;;5075064;28;20028;-84
2021/07/04 03:49:02;;;;;;;14.60;10.40;;;24.00;81.70;;;;;;5057119;28;20111;-86
2021/07/04 03:51:28;;;;;;;17.20;11.48;;;24.00;82.00;;;;;;5057183;28;20453;-85
2021/07/04 03:53:54;;;;;;;13.77;11.07;;;24.10;82.40;;;;;;5074686;28;20028;-85
2021/07/04 03:56:21;;;;;;;12.55;11.13;;;24.50;82.70;;;;;;5074678;28;20024;-86
2021/07/04 03:58:47;;;;;;;13.98;11.07;;;25.00;82.10;;;;;;5074891;28;20027;-87
2021/07/04 04:01:22;;;;;;;16.20;10.70;;;25.70;81.00;;;;;;5074401;28;20027;-85
2021/07/04 04:03:49;;;;;;;15.57;11.00;;;26.30;78.90;;;;;;5074556;28;20036;-85
2021/07/04 04:06:15;;;;;;;13.20;10.32;;;26.60;77.10;;;;;;5074364;28;20082;-86
2021/07/04 04:08:43;;;;;;;17.58;11.23;;;26.80;75.80;;;;;;5056405;28;20139;-86
2021/07/04 04:11:09;;;;;;;14.50;10.32;;;26.80;75.10;;;;;;5056762;28;20115;-86
2021/07/04 04:13:35;;;;;;;15.10;10.82;;;26.90;75.00;;;;;;5074555;28;20051;-86
2021/07/04 04:16:00;;;;;;;15.00;11.05;;;27.10;74.90;;;;;;5056401;28;20379;-87
2021/07/04 04:18:27;;;;;;;15.50;11.20;;;27.30;74.60;;;;;;5074412;28;20104;-87
2021/07/04 04:20:56;;;;;;;14.23;10.98;;;27.80;74.80;;;;;;5074115;28;20383;-86
2021/07/04 04:23:22;;;;;;;14.27;10.50;;;29.00;73.90;;;;;;5074393;28;20028;-86
2021/07/04 04:25:48;;;;;;;13.52;10.40;;;30.10;71.50;;;;;;5074146;28;20122;-86
2021/07/04 04:28:14;;;;;;;12.18;9.90;;;31.30;69.00;;;;;;5073865;28;20468;-87
2021/07/04 04:30:40;;;;;;;13.10;10.43;;;32.50;66.20;;;;;;5055956;28;20106;-88
2021/07/04 04:33:05;;;;;;;14.20;10.30;;;33.50;63.60;;;;;;5075269;28;20028;-86
2021/07/04 04:35:31;;;;;;;11.00;9.77;;;34.40;61.80;;;;;;5058115;28;20020;-86
2021/07/04 04:37:57;;;;;;;15.30;10.15;;;35.60;59.70;;;;;;5056198;28;20108;-86
2021/07/04 04:40:23;;;;;;;10.52;9.57;;;36.60;57.60;;;;;;5074315;28;20024;-86
2021/07/04 04:42:49;;;;;;;11.40;9.90;;;37.50;55.70;;;;;;5073927;28;20024;-86
2021/07/04 04:45:15;;;;;;;13.32;9.43;;;38.20;53.90;;;;;;5073818;28;20100;-87
2021/07/04 04:47:41;;;;;;;11.82;9.38;;;38.80;52.30;;;;;;5073530;28;20032;-87
2021/07/04 04:50:08;;;;;;;11.32;8.95;;;39.20;51.10;;;;;;5074045;28;20097;-87
2021/07/04 04:52:35;;;;;;;9.70;8.70;;;39.60;50.10;;;;;;5073419;28;20016;-87
2021/07/04 04:55:01;;;;;;;12.48;8.65;;;40.10;49.30;;;;;;5073791;28;20036;-86
2021/07/04 04:57:26;;;;;;;9.23;8.40;;;40.60;48.50;;;;;;5055871;28;20029;-87
2021/07/04 04:59:52;;;;;;;8.82;7.88;;;41.10;47.60;;;;;;5074095;28;20021;-87
2021/07/04 05:02:18;;;;;;;13.27;8.27;;;41.70;46.90;;;;;;5056197;28;20494;-87
2021/07/04 05:04:43;;;;;;;10.88;8.57;;;42.10;46.20;;;;;;5056311;28;20387;-87
2021/07/04 05:07:09;;;;;;;8.70;7.85;;;42.50;45.50;;;;;;5056921;28;20036;-87
2021/07/04 05:09:35;;;;;;;8.80;7.93;;;43.00;44.80;;;;;;5074447;28;20036;-87
2021/07/04 05:12:01;;;;;;;10.00;8.38;;;43.50;44.30;;;;;;5055710;28;20094;-88
2021/07/04 05:14:28;;;;;;;9.95;8.98;;;43.90;43.60;;;;;;5073723;28;20425;-88
2021/07/04 05:16:54;;;;;;;9.23;8.32;;;44.20;42.80;;;;;;5056033;28;20028;-88
2021/07/04 05:19:20;;;;;;;12.38;9.70;;;44.50;42.60;;;;;;5073379;28;20036;-88
2021/07/04 05:21:45;;;;;;;11.10;8.02;;;44.80;42.10;;;;;;5073422;28;20025;-87
2021/07/04 05:24:12;;;;;;;9.82;8.00;;;45.20;42.40;;;;;;5073378;28;20021;-88
2021/07/04 05:26:39;;;;;;;9.90;7.22;;;45.60;41.20;;;;;;5073615;28;20039;-87
2021/07/04 05:29:05;;;;;;;18.52;8.02;;;45.90;40.70;;;;;;5073502;28;20478;-86
2021/07/04 05:31:31;;;;;;;9.90;8.05;;;46.20;40.30;;;;;;5073541;28;20467;-87
2021/07/04 05:33:58;;;;;;;11.05;8.35;;;46.60;39.90;;;;;;5073262;28;20028;-87
2021/07/04 05:36:24;;;;;;;9.27;8.30;;;46.80;39.50;;;;;;5073228;28;20138;-83
2021/07/04 05:38:50;;;;;;;12.52;7.40;;;47.10;39.10;;;;;;5073205;28;20388;-87
2021/07/04 05:41:16;;;;;;;9.52;8.15;;;47.30;38.80;;;;;;5073140;28;20069;-85
2021/07/04 05:43:44;;;;;;;8.40;7.50;;;47.50;38.50;;;;;;5073310;28;20017;-85
2021/07/04 05:46:10;;;;;;;9.52;7.50;;;47.70;38.30;;;;;;5073051;28;20020;-85
2021/07/04 05:48:38;;;;;;;12.35;6.82;;;47.80;38.00;;;;;;5073835;28;20100;-87
2021/07/04 05:51:07;;;;;;;9.93;7.35;;;48.10;37.70;;;;;;5072867;28;20428;-86
2021/07/04 05:53:32;;;;;;;8.20;7.50;;;48.20;38.20;;;;;;5072609;28;20041;-84
2021/07/04 05:55:58;;;;;;;11.35;7.72;;;48.40;37.40;;;;;;5072635;28;20024;-83
2021/07/04 05:58:24;;;;;;;10.55;6.82;;;48.70;37.20;;;;;;5072728;28;20529;-81
2021/07/04 06:00:50;;;;;;;11.77;6.80;;;49.00;36.70;;;;;;5078062;28;20032;-83
2021/07/04 06:03:15;;;;;;;7.75;6.95;;;49.20;36.40;;;;;;5076533;28;20016;-88
2021/07/04 06:05:42;;;;;;;8.35;7.43;;;49.40;36.00;;;;;;5061853;28;20028;-87
2021/07/04 06:08:08;;;;;;;7.05;6.38;;;49.50;35.90;;;;;;5059989;28;20073;-89
2021/07/04 06:10:34;;;;;;;9.85;7.03;;;49.30;35.50;;;;;;5055816;28;20107;-89
2021/07/04 06:13:00;;;;;;;9.15;7.60;;;49.00;35.40;;;;;;5059059;28;20040;-90
2021/07/04 06:15:26;;;;;;;9.82;8.18;;;48.40;35.50;;;;;;5077419;28;20458;-88
2021/07/04 06:17:51;;;;;;;9.05;8.25;;;47.90;35.90;;;;;;5076988;28;20843;-88
2021/07/04 06:20:18;;;;;;;9.63;8.73;;;47.30;36.40;;;;;;5076913;28;20027;-89
2021/07/04 06:22:44;;;;;;;9.43;8.38;;;46.60;36.80;;;;;;5076968;28;20115;-89
2021/07/04 06:25:12;;;;;;;8.40;7.70;;;45.90;37.40;;;;;;5077551;28;20107;-89
2021/07/04 06:27:40;;;;;;;9.82;8.90;;;45.20;37.90;;;;;;5076670;28;20021;-88
2021/07/04 06:30:08;;;;;;;10.73;8.48;;;44.90;38.60;;;;;;5058086;28;20439;-89
2021/07/04 06:32:35;;;;;;;11.52;8.55;;;45.00;38.90;;;;;;5058053;28;20055;-89
2021/07/04 06:35:01;;;;;;;11.77;9.82;;;45.30;38.90;;;;;;5079883;28;20016;-85
2021/07/04 06:37:27;;;;;;;12.07;8.77;;;45.80;38.80;;;;;;5059891;28;20020;-78
2021/07/04 06:39:53;;;;;;;10.35;8.82;;;46.00;38.40;;;;;;5072779;28;20028;-77
2021/07/04 06:42:18;;;;;;;11.25;9.95;;;45.80;38.20;;;;;;5072772;28;20065;-79
2021/07/04 06:44:44;;;;;;;11.35;9.20;;;45.60;38.30;;;;;;5074297;28;20016;-80
2021/07/04 06:47:10;;;;;;;9.45;8.65;;;45.40;38.60;;;;;;5073927;28;20028;-81
2021/07/04 06:49:36;;;;;;;14.23;9.95;;;45.30;38.90;;;;;;5073882;28;20313;-82
2021/07/04 06:52:01;;;;;;;10.32;9.32;;;45.30;39.20;;;;;;5074107;28;20464;-81
2021/07/04 06:54:27;;;;;;;10.93;8.98;;;45.30;39.00;;;;;;5073776;28;20045;-81
2021/07/04 06:56:53;;;;;;;9.65;8.77;;;45.10;39.00;;;;;;5073358;28;20066;-81
2021/07/04 06:59:19;;;;;;;10.60;9.50;;;45.00;39.20;;;;;;5073911;28;20021;-81
2021/07/04 07:01:44;;;;;;;12.73;9.40;;;44.90;39.30;;;;;;5073664;28;20472;-80
2021/07/04 07:04:13;;;;;;;10.73;9.25;;;44.80;39.60;;;;;;5073719;28;20039;-80
2021/07/04 07:06:39;;;;;;;11.23;8.95;;;45.00;39.60;;;;;;5073660;28;20379;-81
2021/07/04 07:09:04;;;;;;;10.57;9.43;;;44.80;39.10;;;;;;5073683;28;20528;-80
2021/07/04 07:11:30;;;;;;;13.82;8.98;;;44.30;39.40;;;;;;5072716;28;20115;-82
2021/07/04 07:13:56;;;;;;;13.98;9.50;;;44.00;39.90;;;;;;5073157;28;20017;-80
2021/07/04 07:16:22;;;;;;;11.77;9.10;;;44.00;40.30;;;;;;5073431;28;20074;-81
2021/07/04 07:18:47;;;;;;;10.13;9.10;;;44.20;40.00;;;;;;5073498;28;20031;-80
2021/07/04 07:21:13;;;;;;;12.38;8.65;;;44.00;39.80;;;;;;5073080;28;20079;-79
2021/07/04 07:23:39;;;;;;;9.88;8.80;;;43.80;40.20;;;;;;5072933;28;20055;-79
2021/07/04 07:26:04;;;;;;;14.30;9.50;;;43.60;40.30;;;;;;5073150;28;20033;-81
2021/07/04 07:28:30;;;;;;;11.27;8.88;;;43.20;40.20;;;;;;5055110;28;20116;-79
2021/07/04 07:30:56;;;;;;;12.48;9.90;;;42.80;40.70;;;;;;5073111;28;20031;-80
2021/07/04 07:33:21;;;;;;;13.38;9.27;;;42.60;41.10;;;;;;5055094;28;20108;-81
2021/07/04 07:35:50;;;;;;;10.75;9.35;;;42.50;41.10;;;;;;5073075;28;20066;-81
2021/07/04 07:38:16;;;;;;;15.82;9.38;;;42.40;41.50;;;;;;5072777;28;20028;-81
2021/07/04 07:40:42;;;;;;;12.90;10.02;;;42.20;41.70;;;;;;5072700;28;20032;-81
2021/07/04 07:43:08;;;;;;;10.18;8.27;;;41.80;41.60;;;;;;5072954;28;20387;-81
2021/07/04 07:45:34;;;;;;;10.15;9.15;;;41.70;42.30;;;;;;5072618;28;20096;-80
2021/07/04 07:48:00;;;;;;;10.38;9.30;;;41.60;42.30;;;;;;5072416;28;20051;-81
2021/07/04 07:50:29;;;;;;;10.63;8.80;;;41.60;42.40;;;;;;5072197;28;20431;-81
2021/07/04 07:52:54;;;;;;;10.50;9.25;;;41.60;42.70;;;;;;5054026;28;20028;-81
2021/07/04 07:55:20;;;;;;;11.80;9.27;;;41.50;42.70;;;;;;5072243;28;20047;-81
2021/07/04 07:57:46;;;;;;;12.73;9.23;;;41.60;42.90;;;;;;5072314;28;20024;-79
2021/07/04 08:00:13;;;;;;;15.50;9.95;;;41.60;42.60;;;;;;5072482;28;20410;-80
2021/07/04 08:02:41;;;;;;;11.80;9.95;;;41.50;42.50;;;;;;5071921;28;20021;-80
2021/07/04 08:05:07;;;;;;;13.45;11.63;;;41.40;42.40;;;;;;5072256;28;20467;-81
2021/07/04 08:07:32;;;;;;;11.57;10.23;;;40.70;42.50;;;;;;5072188;28;20368;-80
2021/07/04 08:09:58;;;;;;;12.88;9.80;;;39.90;43.30;;;;;;5072107;28;20077;-80
2021/07/04 08:12:24;;;;;;;11.02;9.95;;;39.20;44.30;;;;;;5071876;28;20029;-80
2021/07/04 08:14:50;;;;;;;13.52;11.02;;;38.60;45.10;;;;;;5072024;28;20063;-79
2021/07/04 08:17:15;;;;;;;18.42;10.75;;;38.20;45.90;;;;;;5071958;28;20455;-79
2021/07/04 08:19:41;;;;;;;13.70;10.35;;;37.80;46.50;;;;;;5054732;28;20383;-80
2021/07/04 08:22:07;;;;;;;11.68;10.35;;;37.60;46.90;;;;;;5071844;28;20024;-81
2021/07/04 08:24:39;;;;;;;13.55;10.55;;;37.60;47.00;;;;;;5071709;28;20073;-81
2021/07/04 08:27:05;;;;;;;12.43;11.13;;;37.60;47.70;;;;;;5053723;28;20028;-80
2021/07/04 08:29:30;;;;;;;18.05;10.80;;;37.50;47.10;;;;;;5053725;28;20355;-80
2021/07/04 08:31:56;;;;;;;11.02;9.90;;;36.90;47.30;;;;;;5071452;28;20050;-80
2021/07/04 08:34:22;;;;;;;14.10;10.43;;;36.50;48.30;;;;;;5071526;28;20653;-80
2021/07/04 08:36:48;;;;;;;11.50;9.95;;;36.20;48.90;;;;;;5072259;28;20459;-79
2021/07/04 08:39:13;;;;;;;13.98;10.05;;;35.80;49.30;;;;;;5071594;28;20056;-81
2021/07/04 08:41:39;;;;;;;14.88;10.15;;;35.70;50.00;;;;;;5071452;28;20048;-80
2021/07/04 08:44:06;;;;;;;11.40;10.10;;;35.80;50.30;;;;;;5071615;28;20047;-81
2021/07/04 08:46:40;;;;;;;12.43;10.18;;;36.00;50.50;;;;;;5071429;28;20017;-81
2021/07/04 08:49:06;;;;;;;14.35;9.60;;;36.10;49.50;;;;;;5071564;28;20020;-81
2021/07/04 08:51:32;;;;;;;13.13;9.75;;;36.20;49.60;;;;;;5071737;28;20082;-80
2021/07/04 08:54:00;;;;;;;14.63;9.65;;;36.40;49.40;;;;;;5071890;28;20135;-81
2021/07/04 08:56:28;;;;;;;10.70;9.63;;;36.50;49.20;;;;;;5071633;28;20132;-81
2021/07/04 08:58:53;;;;;;;13.10;10.23;;;36.50;48.50;;;;;;5072067;28;20091;-79
2021/07/04 09:01:21;;;;;;;10.35;9.25;;;36.50;48.30;;;;;;5071808;28;20171;-78
2021/07/04 09:03:49;;;;;;;12.90;9.55;;;36.40;48.20;;;;;;5072392;28;20029;-79
2021/07/04 09:06:45;;;;;;;13.25;9.35;;;36.30;48.60;;;;;;5071575;28;20021;-79
2021/07/04 09:09:27;;;;;;;12.55;9.65;;;36.40;48.60;;;;;;5071281;28;20040;-78
2021/07/04 09:11:53;;;;;;;12.70;10.23;;;36.30;48.10;;;;;;5071670;28;20033;-79
2021/07/04 09:14:46;;;;;;;18.90;14.43;;;36.20;48.70;;;;;;5053327;28;20024;-79
2021/07/04 09:17:15;;;;;;;12.85;10.65;;;36.00;49.30;;;;;;5068186;28;20368;-80
2021/07/04 09:20:02;;;;;;;11.52;9.20;;;36.00;49.10;;;;;;5071410;28;20082;-80
2021/07/04 09:22:31;;;;;;;13.50;9.40;;;36.00;49.70;;;;;;5071597;28;20049;-79
2021/07/04 09:25:12;;;;;;;15.20;10.30;;;36.00;49.40;;;;;;5071956;28;20489;-86
2021/07/04 09:27:42;;;;;;;14.98;9.80;;;35.90;49.20;;;;;;5072003;28;20548;-82
2021/07/04 09:30:15;;;;;;;13.70;9.77;;;35.80;49.80;;;;;;5052892;28;20120;-81
2021/07/04 09:32:46;;;;;;;13.38;9.73;;;35.70;49.80;;;;;;5071291;28;20065;-81
2021/07/04 09:35:13;;;;;;;12.73;10.27;;;35.70;50.20;;;;;;5074755;28;20028;-81
2021/07/04 09:37:44;;;;;;;18.88;10.20;;;35.70;50.10;;;;;;5074677;28;20099;-81
2021/07/04 09:40:15;;;;;;;11.18;10.02;;;35.80;50.10;;;;;;5074810;28;20024;-82
2021/07/04 09:43:04;;;;;;;14.95;9.65;;;36.00;50.30;;;;;;5074364;28;20073;-81
2021/07/04 09:45:45;;;;;;;12.75;11.15;;;35.90;50.20;;;;;;5074501;28;20360;-80
2021/07/04 09:48:11;;;;;;;;;;;35.80;50.20;;;;;;5074961;28;20024;-80
2021/07/04 09:50:42;;;;;;;12.20;10.65;;;35.60;50.20;;;;;;5074793;28;19904;-80
2021/07/04 09:53:11;;;;;;;14.23;10.43;;;35.40;50.90;;;;;;5056655;28;20051;-81
2021/07/04 09:55:37;;;;;;;14.68;10.55;;;35.30;51.40;;;;;;5074581;28;20044;-81
2021/07/04 09:58:05;;;;;;;13.52;9.15;;;35.40;51.20;;;;;;5056544;28;20025;-81
2021/07/04 10:00:34;;;;;;;11.68;10.10;;;35.40;50.90;;;;;;5056358;28;20036;-80
2021/07/04 10:03:11;;;;;;;13.23;10.80;;;35.50;50.80;;;;;;5074698;28;20024;-81
2021/07/04 10:05:39;;;;;;;13.32;10.75;;;35.50;50.50;;;;;;5074362;28;20092;-80
2021/07/04 10:08:28;;;;;;;15.15;10.65;;;35.50;50.60;;;;;;5074279;28;20036;-80
2021/07/04 10:10:58;;;;;;;11.68;10.05;;;35.20;50.80;;;;;;5073853;28;20027;-82
2021/07/04 10:13:24;;;;;;;14.02;11.00;;;35.20;51.10;;;;;;5074332;28;20020;-81
2021/07/04 10:15:56;;;;;;;15.75;11.27;;;35.10;50.80;;;;;;5074467;28;20021;-83
2021/07/04 10:18:22;;;;;;;11.00;9.93;;;34.90;51.60;;;;;;5074362;28;20031;-81
2021/07/04 10:20:49;;;;;;;14.43;10.45;;;34.90;52.00;;;;;;5074329;28;20025;-81
2021/07/04 10:23:18;;;;;;;16.00;9.93;;;34.90;52.20;;;;;;5074494;28;20040;-79
2021/07/04 10:25:45;;;;;;;13.50;11.13;;;34.90;52.00;;;;;;5074147;28;20491;-80
2021/07/04 10:28:14;;;;;;;16.20;11.70;;;35.00;52.60;;;;;;5073819;28;20059;-81
2021/07/04 10:30:41;;;;;;;12.98;10.82;;;34.90;52.20;;;;;;5056017;28;20389;-81
2021/07/04 10:33:15;;;;;;;13.93;10.55;;;34.90;52.30;;;;;;5056032;28;20034;-81
2021/07/04 10:36:08;;;;;;;15.20;11.05;;;34.90;52.60;;;;;;5073614;28;20039;-82
2021/07/04 10:38:56;;;;;;;13.23;11.82;;;35.00;52.60;;;;;;5073852;28;20016;-80
2021/07/04 10:41:30;;;;;;;14.15;10.52;;;35.00;52.40;;;;;;5073858;28;20028;-81
2021/07/04 10:44:06;;;;;;;11.60;10.40;;;35.00;52.20;;;;;;5055471;28;20051;-81
2021/07/04 10:46:44;;;;;;;13.18;11.05;;;35.00;52.30;;;;;;5073033;28;20569;-78
2021/07/04 10:49:14;;;;;;;11.48;10.32;;;34.90;52.70;;;;;;5073638;28;20032;-80
2021/07/04 10:52:11;;;;;;;11.75;10.55;;;34.80;52.60;;;;;;5055490;28;20431;-78
2021/07/04 10:54:50;;;;;;;15.93;11.90;;;34.80;52.90;;;;;;5053691;28;20140;-78
2021/07/04 10:57:33;;;;;;;15.38;11.43;;;34.70;52.80;;;;;;5073440;28;20096;-80
2021/07/04 11:00:04;;;;;;;11.80;10.60;;;34.50;52.70;;;;;;5073933;28;20020;-81
2021/07/04 11:02:50;;;;;;;12.70;9.93;;;34.30;53.00;;;;;;5075738;28;20035;-80
2021/07/04 11:05:34;;;;;;;17.23;9.15;;;34.10;53.20;;;;;;5082079;28;20545;-79
2021/07/04 11:08:07;;;;;;;18.80;9.75;;;34.00;53.70;;;;;;5073699;28;20021;-78
2021/07/04 11:10:40;;;;;;;18.20;11.05;;;34.10;53.90;;;;;;5073337;28;20013;-80
2021/07/04 11:13:09;;;;;;;19.40;9.65;;;34.10;53.70;;;;;;5073193;28;20111;-80
2021/07/04 11:15:39;;;;;;;10.75;9.50;;;34.20;53.40;;;;;;5055372;28;20418;-79
2021/07/04 11:18:10;;;;;;;14.80;9.65;;;34.20;53.20;;;;;;5073825;28;20111;-79
2021/07/04 11:20:39;;;;;;;12.10;9.93;;;34.10;53.20;;;;;;5073349;28;20073;-79
2021/07/04 11:23:26;;;;;;;14.52;8.75;;;34.10;53.50;;;;;;5073357;28;20078;-79
2021/07/04 11:26:13;;;;;;;12.75;8.75;;;34.00;53.30;;;;;;5054469;28;20040;-80
2021/07/04 11:28:45;;;;;;;10.50;9.40;;;34.00;53.40;;;;;;5073156;28;20090;-78
2021/07/04 11:31:15;;;;;;;10.38;9.38;;;34.10;53.50;;;;;;5072854;28;20042;-80
2021/07/04 11:33:45;;;;;;;11.20;9.77;;;34.00;53.30;;;;;;5056426;28;20128;-80
2021/07/04 11:36:30;;;;;;;10.43;9.43;;;33.80;53.50;;;;;;5072733;28;20043;-78
2021/07/04 11:38:56;;;;;;;14.20;9.20;;;33.60;54.20;;;;;;5072406;28;20154;-79
2021/07/04 11:41:39;;;;;;;11.32;9.10;;;33.60;54.30;;;;;;5072665;28;20100;-78
2021/07/04 11:44:16;;;;;;;15.25;12.50;;;33.60;53.80;;;;;;5073103;28;20028;-78
2021/07/04 11:46:48;;;;;;;12.60;9.70;;;33.50;54.20;;;;;;5072528;28;20085;-79
2021/07/04 11:49:23;;;;;;;15.60;9.80;;;33.50;54.20;;;;;;5072441;28;20025;-80
2021/07/04 11:51:51;;;;;;;9.98;8.13;;;33.40;54.20;;;;;;5054391;28;20501;-79
2021/07/04 11:54:20;;;;;;;11.25;8.98;;;33.10;54.40;;;;;;5070914;28;20045;-79
2021/07/04 11:59:57;;;;;;;12.80;9.82;;;32.70;55.10;;;;;;5072525;28;20415;-77
2021/07/04 12:02:24;;;;;;;13.20;9.23;;;32.50;55.40;;;;;;5071679;28;20395;-78
2021/07/04 12:04:50;;;;;;;10.70;9.00;;;32.50;55.50;;;;;;5071512;28;20438;-77
2021/07/04 12:07:20;;;;;;;11.68;8.23;;;32.50;56.00;;;;;;5053354;28;20529;-80
2021/07/04 12:09:52;;;;;;;12.20;8.23;;;32.60;55.90;;;;;;5071353;28;20060;-79
2021/07/04 12:12:20;;;;;;;11.13;8.80;;;32.70;55.90;;;;;;5070848;28;20113;-79
2021/07/04 12:14:52;;;;;;;11.07;8.90;;;32.80;55.90;;;;;;5070890;28;20475;-79
2021/07/04 12:17:18;;;;;;;;;;;32.90;55.80;;;;;;5071041;28;20139;-79
2021/07/04 12:19:49;;;;;;;11.63;8.82;;;32.90;55.40;;;;;;5052093;28;19995;-79
2021/07/04 12:22:18;;;;;;;;;;;33.00;55.00;;;;;;5070546;28;20534;-76
2021/07/04 12:24:45;;;;;;;8.80;7.90;;;32.80;54.80;;;;;;5070999;28;20381;-77
2021/07/04 12:27:11;;;;;;;16.48;8.30;;;32.70;55.40;;;;;;5070944;28;20075;-76
2021/07/04 12:30:22;;;;;;;9.30;7.82;;;32.70;55.50;;;;;;5070766;28;20048;-77
2021/07/04 12:32:57;;;;;;;8.93;7.97;;;32.70;55.50;;;;;;5065995;28;20043;-76
2021/07/04 12:35:44;;;;;;;10.15;7.68;;;32.80;55.30;;;;;;5071110;28;20282;-77
2021/07/04 12:38:14;;;;;;;11.15;7.53;;;32.90;55.00;;;;;;5070671;28;20487;-76
2021/07/04 12:41:00;;;;;;;10.38;7.55;;;32.90;55.10;;;;;;5053206;28;20379;-75
2021/07/04 12:43:32;;;;;;;9.25;7.60;;;32.90;55.00;;;;;;5070589;28;20031;-76
2021/07/04 12:46:00;;;;;;;11.02;7.75;;;32.90;55.00;;;;;;5052704;28;20112;-77